KCNK/CNK METAR and TAF weather

Enter ICAO airport designator
Station Type Date Time Source
KCNK METAR 2022/01/19 18:55 UTC NOAA

KCNK 191855Z AUTO 01014G24KT 10SM OVC090 M07/M18 A3044 RMK AO2 PK WND 02032/1830 SLP325 T10721178


Station Type Date Time Source
KCNK Decoded METAR 2022/01/19 18:55 UTC NOAA

Concordia, Blosser Municipal Airport, KS, United States (KCNK) 39-33-05N 097-39-02W 447M
Jan 19, 2022 - 01:55 PM EST / 2022.01.19 1855 UTC
Wind: from the N (010 degrees) at 16 MPH (14 KT) gusting to 28 MPH (24 KT):0
Visibility: 10 mile(s):0
Sky conditions: overcast
Temperature: 19.0 F (-7.2 C)
Windchill: 5 F (-15 C):1
Dew Point: -0.0 F (-17.8 C)
Relative Humidity: 42%
Pressure (altimeter): 30.44 in. Hg (1030 hPa)
ob: KCNK 191855Z AUTO 01014G24KT 10SM OVC090 M07/M18 A3044 RMK AO2 PK WND 02032/1830 SLP325 T10721178
cycle: 19

Station Type Date Time Source
KCNK TAF UTC NOAA

Error!

Example: see airport list